Time;durP1;ratioP1;P1;durP2;ratioP2;P2;SDS_P1;SDS_P2;PMS_P1;PMS_P2;Temp;Humidity;BMP_temperature;BMP_pressure;BME280_temperature;BME280_humidity;BME280_pressure;Samples;Min_cycle;Max_cycle;Signal;HPM_P1;HPM_P2
2022/11/05 00:10:29;;;;;;;4.63;3.47;;;7.30;99.90;;;;;;5086935;28;20031;-82
2022/11/05 00:18:27;;;;;;;5.75;3.70;;;7.40;99.90;;;;;;5073508;28;20105;-83
2022/11/05 00:20:53;;;;;;;4.88;3.40;;;7.40;99.90;;;;;;5066757;28;20115;-84
2022/11/05 00:26:06;;;;;;;5.50;3.40;;;7.40;99.90;;;;;;5068876;28;20038;-83
2022/11/05 00:28:32;;;;;;;6.05;3.03;;;7.40;99.90;;;;;;5051008;28;20493;-82
2022/11/05 00:31:03;;;;;;;4.35;3.08;;;7.30;99.90;;;;;;5054304;28;20165;-82
2022/11/05 00:33:29;;;;;;;6.80;3.45;;;7.20;99.90;;;;;;5081793;28;20090;-82
2022/11/05 00:35:55;;;;;;;4.50;3.20;;;7.20;99.90;;;;;;5085400;28;20023;-82
2022/11/05 00:38:21;;;;;;;3.33;3.03;;;7.10;99.90;;;;;;5088840;28;20028;-83
2022/11/05 00:40:47;;;;;;;4.07;3.00;;;7.10;99.90;;;;;;5068943;28;20111;-83
2022/11/05 00:45:57;;;;;;;8.25;4.30;;;7.00;99.90;;;;;;5088776;28;20080;-83
2022/11/05 00:51:07;;;;;;;4.72;3.35;;;6.90;99.90;;;;;;5069132;28;20044;-82
2022/11/05 00:53:33;;;;;;;5.53;3.50;;;6.90;99.90;;;;;;5051650;28;20067;-83
2022/11/05 00:56:00;;;;;;;6.97;3.65;;;6.80;99.90;;;;;;5077085;28;20081;-83
2022/11/05 00:58:28;;;;;;;10.32;5.50;;;6.80;99.90;;;;;;5090397;28;20024;-83
2022/11/05 01:00:56;;;;;;;13.48;8.80;;;6.80;99.90;;;;;;5072399;28;20032;-83
2022/11/05 01:03:27;;;;;;;17.50;12.10;;;6.80;99.90;;;;;;5071933;28;20032;-82
2022/11/05 01:05:55;;;;;;;20.00;12.95;;;6.80;99.90;;;;;;5071852;28;20543;-82
2022/11/05 01:08:24;;;;;;;21.77;13.32;;;6.80;99.90;;;;;;5072072;28;20044;-83
2022/11/05 01:10:53;;;;;;;26.42;13.15;;;6.80;99.90;;;;;;5088577;28;20059;-82
2022/11/05 01:13:29;;;;;;;13.80;8.05;;;6.80;99.90;;;;;;5088600;28;20095;-82
2022/11/05 01:15:56;;;;;;;8.05;4.65;;;6.80;99.90;;;;;;5088962;28;20111;-82
2022/11/05 01:18:23;;;;;;;5.40;3.38;;;6.80;99.90;;;;;;5072325;28;20024;-83
2022/11/05 01:20:49;;;;;;;4.53;3.40;;;6.80;99.90;;;;;;5070187;28;20020;-83
2022/11/05 01:23:15;;;;;;;6.45;3.63;;;6.80;99.90;;;;;;5055392;28;20074;-83
2022/11/05 01:25:42;;;;;;;5.75;3.30;;;6.80;99.90;;;;;;5092453;28;20495;-83
2022/11/05 01:28:08;;;;;;;6.07;3.40;;;6.80;99.90;;;;;;5061110;28;20039;-82
2022/11/05 01:30:35;;;;;;;5.55;3.30;;;6.80;99.90;;;;;;5075684;28;20039;-83
2022/11/05 01:33:02;;;;;;;9.30;3.38;;;6.80;99.90;;;;;;5092183;28;20119;-83
2022/11/05 01:35:27;;;;;;;6.15;3.47;;;6.80;99.90;;;;;;5090722;28;20035;-83
2022/11/05 01:37:53;;;;;;;5.70;3.20;;;6.80;99.90;;;;;;5092460;28;20024;-84
2022/11/05 01:40:21;;;;;;;4.78;3.83;;;6.80;99.90;;;;;;5075538;28;20392;-83
2022/11/05 01:42:47;;;;;;;5.38;3.33;;;6.80;99.90;;;;;;5092294;28;20032;-83
2022/11/05 01:45:18;;;;;;;7.40;3.70;;;6.70;99.90;;;;;;5075213;28;20032;-83
2022/11/05 01:47:56;;;;;;;7.18;3.65;;;6.80;99.90;;;;;;5091971;28;20455;-83
2022/11/05 01:50:49;;;;;;;7.68;4.20;;;6.80;99.90;;;;;;5091643;28;20031;-83
2022/11/05 01:53:29;;;;;;;5.03;3.95;;;6.80;99.90;;;;;;5092688;28;20040;-83
2022/11/05 01:55:57;;;;;;;8.27;5.07;;;6.80;99.90;;;;;;5091826;28;20028;-83
2022/11/05 01:58:28;;;;;;;6.88;4.70;;;6.80;99.90;;;;;;5071720;28;20035;-82
2022/11/05 02:00:55;;;;;;;8.98;4.80;;;6.80;99.90;;;;;;5089488;28;20039;-82
2022/11/05 02:03:22;;;;;;;8.15;5.22;;;6.80;99.90;;;;;;5074140;28;20032;-83
2022/11/05 02:05:50;;;;;;;8.30;5.05;;;6.80;99.90;;;;;;5074464;28;20035;-83
2022/11/05 02:08:39;;;;;;;7.07;5.07;;;6.80;99.90;;;;;;5090961;28;20085;-83
2022/11/05 02:11:05;;;;;;;7.05;5.25;;;6.80;99.90;;;;;;5091221;28;20060;-82
2022/11/05 02:13:31;;;;;;;7.07;5.57;;;6.80;99.90;;;;;;5092319;28;20508;-83
2022/11/05 02:16:36;;;;;;;11.07;5.40;;;6.90;99.90;;;;;;5037014;28;20028;-83
2022/11/05 02:19:20;;;;;;;11.45;6.03;;;6.90;99.90;;;;;;5071237;28;20100;-85
2022/11/05 02:22:13;;;;;;;9.43;6.30;;;6.90;99.90;;;;;;5067873;28;20099;-83
2022/11/05 02:24:55;;;;;;;10.02;6.38;;;6.90;99.90;;;;;;5090933;28;20032;-83
2022/11/05 02:27:51;;;;;;;11.10;5.85;;;6.90;99.90;;;;;;5074633;28;20036;-83
2022/11/05 02:30:41;;;;;;;8.70;5.95;;;6.90;99.90;;;;;;5084493;28;20032;-83
2022/11/05 02:33:29;;;;;;;13.20;6.43;;;6.90;99.90;;;;;;5070251;28;20036;-83
2022/11/05 02:36:17;;;;;;;12.73;6.97;;;6.90;99.90;;;;;;5079002;28;20162;-83
2022/11/05 02:39:03;;;;;;;11.48;6.50;;;6.90;99.90;;;;;;5091181;28;20123;-83
2022/11/05 02:41:50;;;;;;;9.95;6.05;;;6.90;99.90;;;;;;5092129;28;20120;-82
2022/11/05 02:44:30;;;;;;;10.85;6.30;;;6.90;99.90;;;;;;5040000;28;20033;-83
2022/11/05 02:47:02;;;;;;;14.35;6.97;;;6.90;99.90;;;;;;5085787;28;20036;-84
2022/11/05 02:49:47;;;;;;;11.88;6.47;;;6.90;99.90;;;;;;5080678;28;20132;-83
2022/11/05 02:52:36;;;;;;;10.43;6.15;;;6.90;99.90;;;;;;5087722;28;20036;-84
2022/11/05 02:55:10;;;;;;;10.73;6.05;;;6.90;99.90;;;;;;5090565;28;20115;-83
2022/11/05 02:57:36;;;;;;;8.43;5.93;;;6.90;99.90;;;;;;5090561;28;20028;-83
2022/11/05 03:00:26;;;;;;;9.98;5.75;;;7.00;99.90;;;;;;5073809;28;20032;-83
2022/11/05 03:02:52;;;;;;;8.85;5.15;;;7.00;99.90;;;;;;5073137;28;20039;-84
2022/11/05 03:05:24;;;;;;;6.93;3.70;;;7.00;99.90;;;;;;5073454;28;20655;-83
2022/11/05 03:07:58;;;;;;;4.22;3.28;;;7.00;99.90;;;;;;5073599;28;20081;-83
2022/11/05 03:10:44;;;;;;;3.25;2.90;;;7.00;99.90;;;;;;5090631;28;20054;-83
2022/11/05 03:13:18;;;;;;;5.50;4.00;;;7.00;99.90;;;;;;5088447;28;20103;-84
2022/11/05 03:16:01;;;;;;;11.05;4.40;;;7.00;99.90;;;;;;5071457;28;20038;-85
2022/11/05 03:18:43;;;;;;;9.85;5.00;;;7.10;99.90;;;;;;5072393;28;20114;-83
2022/11/05 03:21:46;;;;;;;8.93;4.93;;;7.10;99.90;;;;;;5068643;28;20604;-83
2022/11/05 03:24:22;;;;;;;7.47;4.95;;;7.10;99.90;;;;;;5052257;28;20044;-82
2022/11/05 03:27:07;;;;;;;6.72;4.75;;;7.10;99.90;;;;;;5086480;28;20485;-83
2022/11/05 03:29:43;;;;;;;10.82;5.68;;;7.10;99.90;;;;;;5089940;28;20023;-83
2022/11/05 03:32:11;;;;;;;8.68;5.38;;;7.10;99.90;;;;;;5086693;28;20110;-83
2022/11/05 03:34:50;;;;;;;9.82;4.78;;;7.00;99.90;;;;;;5065014;28;20036;-83
2022/11/05 03:37:21;;;;;;;10.15;5.63;;;7.00;99.90;;;;;;5067065;28;20032;-83
2022/11/05 03:39:55;;;;;;;8.60;5.15;;;7.10;99.90;;;;;;5036138;28;20059;-84
2022/11/05 03:42:27;;;;;;;9.40;5.20;;;7.10;99.90;;;;;;5069274;28;20028;-83
2022/11/05 03:44:56;;;;;;;8.80;4.53;;;7.00;99.90;;;;;;5064658;28;20039;-82
2022/11/05 03:47:31;;;;;;;6.03;5.15;;;7.00;99.90;;;;;;5066758;28;20024;-83
2022/11/05 03:50:27;;;;;;;13.03;4.90;;;7.10;99.90;;;;;;5067505;28;20060;-83
2022/11/05 03:52:59;;;;;;;9.10;5.72;;;7.10;99.90;;;;;;5068083;28;20032;-83
2022/11/05 03:55:34;;;;;;;12.18;5.57;;;7.00;99.90;;;;;;5063634;28;20059;-83
2022/11/05 03:58:03;;;;;;;8.55;5.20;;;7.00;99.90;;;;;;5068762;28;20025;-83
2022/11/05 04:00:29;;;;;;;8.25;5.35;;;7.00;99.90;;;;;;5077642;28;20039;-83
2022/11/05 04:02:54;;;;;;;10.93;6.15;;;7.00;99.90;;;;;;5053797;28;20028;-83
2022/11/05 04:05:20;;;;;;;10.18;5.15;;;7.00;99.90;;;;;;5070323;28;20043;-84
2022/11/05 04:13:23;;;;;;;9.43;4.97;;;7.00;99.90;;;;;;5087151;28;20083;-83
2022/11/05 04:18:35;;;;;;;10.13;5.72;;;7.00;99.90;;;;;;5059328;28;20673;-83
2022/11/05 04:26:30;;;;;;;9.05;5.00;;;6.90;99.90;;;;;;5078364;28;20168;-82
2022/11/05 04:31:40;;;;;;;8.02;4.60;;;6.90;99.90;;;;;;5068142;28;20079;-83
2022/11/05 04:34:06;;;;;;;9.13;5.50;;;6.90;99.90;;;;;;5052558;28;20060;-84
2022/11/05 04:36:32;;;;;;;9.23;6.18;;;6.90;99.90;;;;;;5069198;28;20111;-85
2022/11/05 04:38:57;;;;;;;9.38;6.40;;;6.90;99.90;;;;;;5087099;28;20082;-83
2022/11/05 04:41:23;;;;;;;9.57;5.65;;;6.90;99.90;;;;;;5070006;28;20032;-83
2022/11/05 04:43:49;;;;;;;9.90;6.18;;;6.90;99.90;;;;;;5053156;28;20032;-85
2022/11/05 04:46:15;;;;;;;9.52;5.20;;;6.90;99.90;;;;;;5066027;28;20032;-84
2022/11/05 04:48:41;;;;;;;11.95;5.18;;;6.90;99.90;;;;;;5054024;28;20637;-82
2022/11/05 04:51:06;;;;;;;7.30;5.25;;;6.90;99.90;;;;;;5035882;28;20035;-81
2022/11/05 04:53:32;;;;;;;10.65;5.70;;;6.90;99.90;;;;;;5069955;28;20032;-83
2022/11/05 04:56:17;;;;;;;8.52;5.00;;;6.90;99.90;;;;;;5071727;28;20115;-82
2022/11/05 04:58:43;;;;;;;9.07;5.10;;;6.90;99.90;;;;;;5091008;28;20028;-82
2022/11/05 05:01:15;;;;;;;9.07;5.88;;;6.90;99.90;;;;;;5065306;28;20067;-83
2022/11/05 05:03:41;;;;;;;11.35;6.22;;;6.90;99.90;;;;;;5062883;28;20052;-83
2022/11/05 05:06:07;;;;;;;9.25;6.05;;;6.90;99.90;;;;;;5088413;28;20929;-82
2022/11/05 05:08:33;;;;;;;7.47;5.47;;;6.90;99.90;;;;;;5065224;28;20075;-83
2022/11/05 05:11:04;;;;;;;8.13;5.72;;;6.90;99.90;;;;;;5071495;28;20484;-83
2022/11/05 05:13:30;;;;;;;10.13;5.93;;;6.90;99.90;;;;;;5087180;28;20633;-84
2022/11/05 05:15:56;;;;;;;9.13;5.68;;;6.90;99.90;;;;;;5073318;28;20093;-83
2022/11/05 05:18:24;;;;;;;12.23;6.45;;;6.90;99.90;;;;;;5053408;28;20513;-83
2022/11/05 05:23:33;;;;;;;9.07;6.05;;;6.90;99.90;;;;;;5075443;28;20043;-82
2022/11/05 05:25:59;;;;;;;11.23;6.72;;;7.00;99.90;;;;;;5068124;28;20036;-84
2022/11/05 05:28:26;;;;;;;9.45;6.68;;;7.00;99.90;;;;;;5065803;28;20078;-83
2022/11/05 05:30:52;;;;;;;9.13;6.50;;;7.00;99.90;;;;;;5066149;28;20083;-84
2022/11/05 05:33:18;;;;;;;10.20;6.05;;;6.90;99.90;;;;;;5048382;28;20428;-83
2022/11/05 05:35:44;;;;;;;12.88;7.35;;;7.00;99.90;;;;;;5055721;28;20137;-83
2022/11/05 05:38:10;;;;;;;13.43;7.15;;;7.00;99.90;;;;;;5070745;28;20441;-83
2022/11/05 05:40:35;;;;;;;9.20;6.45;;;7.00;99.90;;;;;;5067837;28;20123;-83
2022/11/05 05:43:01;;;;;;;10.13;7.10;;;7.00;99.90;;;;;;5089806;28;20046;-83
2022/11/05 05:45:27;;;;;;;13.48;8.07;;;7.00;99.90;;;;;;5056254;28;20032;-83
2022/11/05 05:47:55;;;;;;;10.32;7.47;;;7.00;99.90;;;;;;5039919;28;20194;-83
2022/11/05 05:50:21;;;;;;;13.75;7.65;;;7.00;99.90;;;;;;5082994;28;20036;-83
2022/11/05 05:52:51;;;;;;;11.30;7.35;;;7.00;99.90;;;;;;5072906;28;20438;-83
2022/11/05 05:55:16;;;;;;;12.68;8.20;;;7.00;99.90;;;;;;5072595;28;20028;-83
2022/11/05 05:57:42;;;;;;;12.85;7.68;;;7.00;99.90;;;;;;5055927;28;20043;-84
2022/11/05 06:00:08;;;;;;;11.68;8.27;;;7.00;99.90;;;;;;5072486;28;20037;-83
2022/11/05 06:02:37;;;;;;;8.95;6.80;;;7.00;99.90;;;;;;5069974;28;20032;-83
2022/11/05 06:05:03;;;;;;;11.38;6.80;;;7.00;99.90;;;;;;5052488;28;20131;-83
2022/11/05 06:07:29;;;;;;;9.02;6.47;;;7.00;99.90;;;;;;5051788;28;20116;-83
2022/11/05 06:09:55;;;;;;;9.57;6.70;;;7.00;99.90;;;;;;5043269;28;20063;-83
2022/11/05 06:12:21;;;;;;;8.95;4.88;;;7.00;99.90;;;;;;5075956;28;20064;-83
2022/11/05 06:14:46;;;;;;;7.13;3.92;;;7.00;99.90;;;;;;5054113;28;20036;-83
2022/11/05 06:17:12;;;;;;;5.82;3.80;;;7.00;99.90;;;;;;5055673;28;20028;-83
2022/11/05 06:19:38;;;;;;;5.68;4.40;;;7.00;99.90;;;;;;5072554;28;20103;-83
2022/11/05 06:22:03;;;;;;;6.60;3.75;;;7.00;99.90;;;;;;5058230;28;20036;-83
2022/11/05 06:24:29;;;;;;;7.47;4.25;;;6.90;99.90;;;;;;5090670;28;20028;-83
2022/11/05 06:26:55;;;;;;;7.18;4.00;;;7.00;99.90;;;;;;5089179;28;20032;-82
2022/11/05 06:29:21;;;;;;;8.13;4.43;;;7.00;99.90;;;;;;5090480;28;20032;-84
2022/11/05 06:31:46;;;;;;;6.55;4.85;;;6.90;99.90;;;;;;5069062;28;20032;-84
2022/11/05 06:34:12;;;;;;;10.02;6.10;;;6.90;99.90;;;;;;5040023;28;20144;-85
2022/11/05 06:36:39;;;;;;;10.57;6.15;;;6.90;99.90;;;;;;5061663;28;20035;-84
2022/11/05 06:39:08;;;;;;;9.73;5.57;;;6.90;99.90;;;;;;5036045;28;20460;-85
2022/11/05 06:41:34;;;;;;;11.45;6.93;;;6.90;99.90;;;;;;5080753;28;20048;-84
2022/11/05 06:44:00;;;;;;;10.23;6.63;;;6.90;99.90;;;;;;5055149;28;20036;-85
2022/11/05 06:46:26;;;;;;;10.38;7.28;;;6.90;99.90;;;;;;5068484;28;20068;-84
2022/11/05 06:48:51;;;;;;;10.40;6.93;;;6.90;99.90;;;;;;5038639;28;20044;-85
2022/11/05 06:51:17;;;;;;;9.65;6.57;;;7.00;99.90;;;;;;5051492;28;20106;-85
2022/11/05 06:53:43;;;;;;;10.48;6.68;;;7.00;99.90;;;;;;5037688;28;20044;-84
2022/11/05 06:56:09;;;;;;;10.45;6.80;;;7.00;99.90;;;;;;5057572;28;20052;-85
2022/11/05 06:58:35;;;;;;;10.85;6.78;;;7.00;99.90;;;;;;5075323;28;20123;-85
2022/11/05 07:01:03;;;;;;;10.80;7.40;;;7.00;99.90;;;;;;5078692;28;20035;-84
2022/11/05 07:03:30;;;;;;;11.93;7.65;;;7.10;99.90;;;;;;5087840;28;20024;-84
2022/11/05 07:05:58;;;;;;;15.18;7.55;;;7.10;99.90;;;;;;5067637;28;20028;-84
2022/11/05 07:08:24;;;;;;;12.13;7.65;;;7.10;99.90;;;;;;5052143;28;20635;-84
2022/11/05 07:10:50;;;;;;;15.43;7.65;;;7.10;99.90;;;;;;5068045;28;20058;-84
2022/11/05 07:13:16;;;;;;;13.07;7.97;;;7.20;99.90;;;;;;5092891;28;20037;-84
2022/11/05 07:15:45;;;;;;;13.55;7.55;;;7.20;99.90;;;;;;5090900;28;20016;-81
2022/11/05 07:18:11;;;;;;;10.05;6.82;;;7.30;99.90;;;;;;5035321;28;20028;-83
2022/11/05 07:20:36;;;;;;;10.02;6.55;;;7.30;99.90;;;;;;5052794;28;20028;-84
2022/11/05 07:23:05;;;;;;;8.77;5.50;;;7.30;99.90;;;;;;5052540;28;20033;-82
2022/11/05 07:25:32;;;;;;;10.25;5.55;;;7.40;99.90;;;;;;5054260;28;20550;-83
2022/11/05 07:27:58;;;;;;;9.95;6.57;;;7.40;99.90;;;;;;5052283;28;20033;-82
2022/11/05 07:30:24;;;;;;;11.35;7.55;;;7.40;99.90;;;;;;5081790;28;20020;-84
2022/11/05 07:32:50;;;;;;;14.05;6.82;;;7.50;99.90;;;;;;5088861;28;20054;-84
2022/11/05 07:35:16;;;;;;;12.25;7.88;;;7.50;99.90;;;;;;5069815;28;20575;-83
2022/11/05 07:37:47;;;;;;;13.38;8.45;;;7.60;99.90;;;;;;5051352;28;20051;-83
2022/11/05 07:40:14;;;;;;;13.52;8.55;;;7.60;99.90;;;;;;5053495;28;20202;-83
2022/11/05 07:42:51;;;;;;;16.02;9.07;;;7.60;99.90;;;;;;5070219;28;20103;-83
2022/11/05 07:45:17;;;;;;;19.00;10.48;;;7.70;99.90;;;;;;5062387;28;20027;-82
2022/11/05 07:47:48;;;;;;;15.68;9.88;;;7.70;99.90;;;;;;5070561;28;20399;-84
2022/11/05 07:50:16;;;;;;;19.80;10.10;;;7.70;99.90;;;;;;5088955;28;20114;-82
2022/11/05 07:52:42;;;;;;;13.25;8.98;;;7.80;99.90;;;;;;5070543;28;20036;-81
2022/11/05 07:55:09;;;;;;;15.32;10.07;;;7.80;99.90;;;;;;5071290;28;20073;-82
2022/11/05 07:57:43;;;;;;;18.63;11.23;;;7.90;99.90;;;;;;5067951;28;20032;-83
2022/11/05 08:00:14;;;;;;;16.50;10.13;;;7.90;99.90;;;;;;5081210;28;20120;-85
2022/11/05 08:02:41;;;;;;;16.90;10.00;;;7.90;99.90;;;;;;5035983;28;20056;-84
2022/11/05 08:05:08;;;;;;;16.30;9.80;;;8.00;99.90;;;;;;5052590;28;20119;-84
2022/11/05 08:07:34;;;;;;;14.25;9.75;;;8.00;99.90;;;;;;5072437;28;20503;-83
2022/11/05 08:09:59;;;;;;;14.13;8.65;;;8.00;99.90;;;;;;5063322;28;20032;-81
2022/11/05 08:12:25;;;;;;;18.10;10.13;;;8.10;99.90;;;;;;5085930;28;20507;-81
2022/11/05 08:14:51;;;;;;;12.35;9.13;;;8.10;99.90;;;;;;5069044;28;20040;-82
2022/11/05 08:17:17;;;;;;;13.70;8.40;;;8.20;99.90;;;;;;5070142;28;20052;-82
2022/11/05 08:19:43;;;;;;;13.63;8.82;;;8.20;99.90;;;;;;5062125;28;20033;-84
2022/11/05 08:22:09;;;;;;;13.20;8.68;;;8.30;99.90;;;;;;5067466;28;20058;-82
2022/11/05 08:24:34;;;;;;;13.95;8.85;;;8.40;99.90;;;;;;5060100;28;20076;-83
2022/11/05 08:27:00;;;;;;;15.90;9.63;;;8.40;99.90;;;;;;5063708;28;20035;-83
2022/11/05 08:29:26;;;;;;;15.70;9.10;;;8.50;99.90;;;;;;5052238;28;20098;-84
2022/11/05 08:31:51;;;;;;;13.95;8.30;;;8.50;99.90;;;;;;5069126;28;20031;-84
2022/11/05 08:34:17;;;;;;;16.83;9.52;;;8.50;99.90;;;;;;5074796;28;20054;-84
2022/11/05 08:36:45;;;;;;;13.82;8.82;;;8.60;99.90;;;;;;5075043;28;20523;-83
2022/11/05 08:39:12;;;;;;;19.45;10.98;;;8.70;99.90;;;;;;5059208;28;20032;-83
2022/11/05 08:41:39;;;;;;;14.27;8.23;;;8.80;99.90;;;;;;5055183;28;20508;-84
2022/11/05 08:44:08;;;;;;;11.10;8.07;;;8.90;99.90;;;;;;5038385;28;20040;-83
2022/11/05 08:46:35;;;;;;;15.15;8.77;;;8.90;99.90;;;;;;5082912;28;20040;-83
2022/11/05 08:49:02;;;;;;;13.25;8.73;;;9.00;99.90;;;;;;5093687;28;20036;-83
2022/11/05 08:51:27;;;;;;;15.25;8.80;;;9.10;99.90;;;;;;5092226;28;20043;-83
2022/11/05 08:53:53;;;;;;;13.10;8.45;;;9.20;99.90;;;;;;5058158;28;20036;-85
2022/11/05 08:56:19;;;;;;;11.00;7.10;;;9.30;99.90;;;;;;5071721;28;20025;-84
2022/11/05 08:58:45;;;;;;;13.48;8.30;;;9.30;99.90;;;;;;5090932;28;20385;-84
2022/11/05 09:01:11;;;;;;;11.52;7.50;;;9.40;99.90;;;;;;5063278;28;20593;-85
2022/11/05 09:03:37;;;;;;;10.68;6.97;;;9.50;99.90;;;;;;5068820;28;20122;-84
2022/11/05 09:06:03;;;;;;;9.23;5.80;;;9.50;99.90;;;;;;5074835;28;20040;-84
2022/11/05 09:08:28;;;;;;;11.13;6.32;;;9.60;99.90;;;;;;5048872;28;20035;-83
2022/11/05 09:10:54;;;;;;;9.48;5.70;;;9.60;99.90;;;;;;5091843;28;20044;-81
2022/11/05 09:13:20;;;;;;;11.30;6.35;;;9.70;99.90;;;;;;5075300;28;20040;-86
2022/11/05 09:15:47;;;;;;;9.93;6.07;;;9.70;99.90;;;;;;5091583;28;20020;-84
2022/11/05 09:18:14;;;;;;;9.85;6.55;;;9.90;99.90;;;;;;5075602;28;20055;-84
2022/11/05 09:20:40;;;;;;;7.95;5.75;;;10.00;99.90;;;;;;5073767;28;20540;-83
2022/11/05 09:23:07;;;;;;;10.90;6.15;;;10.00;99.90;;;;;;5088886;28;20036;-84
2022/11/05 09:25:33;;;;;;;7.82;5.82;;;10.00;99.90;;;;;;5084938;28;20035;-81
2022/11/05 09:28:17;;;;;;;7.28;6.22;;;10.10;99.90;;;;;;5074224;28;20024;-83
2022/11/05 09:30:53;;;;;;;7.10;4.95;;;10.20;99.90;;;;;;5055015;28;20055;-82
2022/11/05 09:33:24;;;;;;;8.40;5.72;;;10.30;99.90;;;;;;5061405;28;20485;-83
2022/11/05 09:35:50;;;;;;;7.20;5.50;;;10.30;99.90;;;;;;5054514;28;20036;-83
2022/11/05 09:38:16;;;;;;;9.00;4.90;;;10.40;99.90;;;;;;5070677;28;20409;-82
2022/11/05 09:40:51;;;;;;;10.35;5.95;;;10.50;99.90;;;;;;5057642;28;20385;-82
2022/11/05 09:43:21;;;;;;;7.63;5.65;;;10.60;99.90;;;;;;5085675;28;20043;-82
2022/11/05 09:45:55;;;;;;;10.75;6.20;;;10.60;99.90;;;;;;5060578;28;20563;-83
2022/11/05 09:48:26;;;;;;;8.88;6.32;;;10.60;99.90;;;;;;5080686;28;20035;-81
2022/11/05 09:50:53;;;;;;;11.10;7.10;;;10.60;99.90;;;;;;5053761;28;20378;-84
2022/11/05 09:53:22;;;;;;;9.13;5.85;;;10.60;99.90;;;;;;5068313;28;20495;-83
2022/11/05 09:55:56;;;;;;;8.38;6.47;;;10.60;99.90;;;;;;5061429;28;20031;-82
2022/11/05 09:58:34;;;;;;;10.93;7.20;;;10.60;99.90;;;;;;5053646;28;20610;-82
2022/11/05 10:01:03;;;;;;;9.73;6.35;;;10.60;99.90;;;;;;5073390;28;20115;-82
2022/11/05 10:03:29;;;;;;;10.15;6.55;;;10.60;99.90;;;;;;5086344;28;20037;-82
2022/11/05 10:06:06;;;;;;;14.88;8.02;;;10.60;99.90;;;;;;5075898;28;20028;-81
2022/11/05 10:08:37;;;;;;;12.45;6.97;;;10.70;99.90;;;;;;5078825;28;20065;-82
2022/11/05 10:11:17;;;;;;;14.20;7.18;;;10.70;99.90;;;;;;5066235;28;20746;-82
2022/11/05 10:13:45;;;;;;;9.55;7.88;;;10.90;99.90;;;;;;5061234;28;20039;-82
2022/11/05 10:16:26;;;;;;;13.15;6.93;;;10.90;99.90;;;;;;5075284;28;20036;-82
2022/11/05 10:19:26;;;;;;;12.00;7.90;;;10.90;99.90;;;;;;5069670;28;20116;-82
2022/11/05 10:22:08;;;;;;;15.02;8.57;;;10.90;99.90;;;;;;5066028;28;20043;-82
2022/11/05 10:24:34;;;;;;;9.88;7.45;;;11.00;99.90;;;;;;5064850;28;20078;-82
2022/11/05 10:27:00;;;;;;;11.25;7.28;;;11.00;99.90;;;;;;5086317;28;20064;-81
2022/11/05 10:29:31;;;;;;;10.68;6.90;;;11.00;99.90;;;;;;5043491;28;20035;-83
2022/11/05 10:31:59;;;;;;;13.20;7.35;;;11.00;99.90;;;;;;5083751;28;20038;-82
2022/11/05 10:34:29;;;;;;;14.35;6.97;;;11.00;99.90;;;;;;5048800;28;20607;-82
2022/11/05 10:36:55;;;;;;;16.67;8.38;;;11.00;99.90;;;;;;5053604;28;20178;-82
2022/11/05 10:39:22;;;;;;;9.98;7.80;;;11.00;99.90;;;;;;5040024;28;20036;-85
2022/11/05 10:42:17;;;;;;;10.38;6.97;;;11.00;99.90;;;;;;5024516;28;20028;-86
2022/11/05 10:44:47;;;;;;;11.32;7.75;;;11.10;99.90;;;;;;5083511;28;20050;-83
2022/11/05 10:47:28;;;;;;;10.55;7.07;;;11.10;99.90;;;;;;5074437;28;20047;-84
2022/11/05 10:50:12;;;;;;;8.23;6.63;;;11.10;99.90;;;;;;5071216;28;20031;-82
2022/11/05 10:52:56;;;;;;;14.38;7.13;;;10.90;99.90;;;;;;5072654;28;20040;-83
2022/11/05 10:55:33;;;;;;;10.68;6.88;;;10.80;99.90;;;;;;5090202;28;20574;-83
2022/11/05 10:58:09;;;;;;;11.25;6.75;;;10.60;99.90;;;;;;5056189;28;20025;-83
2022/11/05 11:00:35;;;;;;;10.48;7.13;;;10.50;99.90;;;;;;5090903;28;20110;-82
2022/11/05 11:03:04;;;;;;;10.00;7.00;;;10.50;99.90;;;;;;5072199;28;20052;-84
2022/11/05 11:05:39;;;;;;;11.23;7.88;;;10.40;99.90;;;;;;5060912;28;20088;-84
2022/11/05 11:08:22;;;;;;;11.10;6.43;;;10.40;99.90;;;;;;5053055;28;20767;-83
2022/11/05 11:11:01;;;;;;;9.43;7.00;;;10.20;99.90;;;;;;5068960;28;20081;-83
2022/11/05 11:13:56;;;;;;;10.07;6.30;;;10.20;99.90;;;;;;5050658;28;20086;-82
2022/11/05 11:16:26;;;;;;;11.27;6.05;;;10.10;99.90;;;;;;5076675;28;20092;-82
2022/11/05 11:19:00;;;;;;;7.95;5.63;;;10.10;99.90;;;;;;5045836;28;20036;-83
2022/11/05 11:21:27;;;;;;;7.68;5.68;;;10.20;99.90;;;;;;5066573;28;20663;-82
2022/11/05 11:23:57;;;;;;;9.05;5.10;;;10.20;99.90;;;;;;5071325;28;20028;-83
2022/11/05 11:26:27;;;;;;;8.00;5.10;;;10.20;99.90;;;;;;5066963;28;20098;-84
2022/11/05 11:29:00;;;;;;;9.05;5.03;;;10.30;99.90;;;;;;5075895;28;20032;-85
2022/11/05 11:31:29;;;;;;;6.80;4.50;;;10.30;99.90;;;;;;5078495;28;20177;-84
2022/11/05 11:34:11;;;;;;;8.43;4.30;;;10.50;99.90;;;;;;5063489;28;20111;-82
2022/11/05 11:36:45;;;;;;;5.53;4.15;;;10.60;99.90;;;;;;5076655;28;21317;-82
2022/11/05 11:39:18;;;;;;;10.47;4.47;;;10.70;99.90;;;;;;5072129;28;20119;-82
2022/11/05 11:41:47;;;;;;;10.90;4.95;;;10.70;99.90;;;;;;5050244;28;20024;-82
2022/11/05 11:44:18;;;;;;;5.97;4.57;;;10.80;99.90;;;;;;5082872;28;20028;-83
2022/11/05 11:46:49;;;;;;;7.13;5.45;;;10.80;99.90;;;;;;5047709;28;20485;-82
2022/11/05 11:49:40;;;;;;;7.57;5.05;;;10.70;99.90;;;;;;5068190;28;20035;-81
2022/11/05 11:52:12;;;;;;;7.97;5.13;;;10.70;99.90;;;;;;5061867;28;20115;-84
2022/11/05 11:54:38;;;;;;;8.13;5.28;;;10.60;99.90;;;;;;5082330;28;20028;-83
2022/11/05 11:57:26;;;;;;;8.40;4.93;;;10.60;99.90;;;;;;5077067;28;20042;-84
2022/11/05 11:59:54;;;;;;;11.27;5.93;;;10.40;99.90;;;;;;5069106;28;20585;-82
2022/11/05 12:02:35;;;;;;;8.27;5.63;;;10.40;99.90;;;;;;5070396;28;20376;-83
2022/11/05 12:05:21;;;;;;;11.75;6.63;;;10.20;99.90;;;;;;5067339;28;20464;-83
2022/11/05 12:08:18;;;;;;;8.20;5.78;;;10.20;99.90;;;;;;5087025;28;20124;-82
2022/11/05 12:10:59;;;;;;;9.75;5.70;;;10.00;99.90;;;;;;5087831;28;20028;-82
2022/11/05 12:13:48;;;;;;;8.75;5.88;;;9.90;99.90;;;;;;5057694;28;20531;-83
2022/11/05 12:16:25;;;;;;;10.93;6.57;;;9.90;99.90;;;;;;5070631;28;20072;-82
2022/11/05 12:18:57;;;;;;;10.07;6.47;;;9.80;99.90;;;;;;5064325;28;20489;-82
2022/11/05 12:21:41;;;;;;;9.10;6.25;;;9.80;99.90;;;;;;5079279;28;20426;-82
2022/11/05 12:24:27;;;;;;;8.57;5.53;;;9.60;99.90;;;;;;5078749;28;20033;-83
2022/11/05 12:27:01;;;;;;;;;;;9.50;99.90;;;;;;5063056;28;20115;-86
2022/11/05 12:29:38;;;;;;;12.75;7.00;;;9.40;99.90;;;;;;5057207;28;19908;-86
2022/11/05 12:32:44;;;;;;;9.45;6.28;;;9.40;99.90;;;;;;5073074;28;20097;-86
2022/11/05 12:35:38;;;;;;;9.98;7.20;;;9.30;99.90;;;;;;5082847;28;20028;-85
2022/11/05 12:38:31;;;;;;;16.77;7.22;;;9.20;99.90;;;;;;5066234;28;20119;-85
2022/11/05 12:41:16;;;;;;;12.25;6.80;;;9.20;99.90;;;;;;5067250;28;20017;-85
2022/11/05 12:44:19;;;;;;;10.10;7.53;;;9.10;99.90;;;;;;5066848;28;20032;-86
2022/11/05 12:47:03;;;;;;;14.30;7.50;;;9.20;99.90;;;;;;5080911;28;20040;-83
2022/11/05 12:49:50;;;;;;;11.50;8.18;;;9.10;99.90;;;;;;5058714;28;20066;-87
2022/11/05 12:52:18;;;;;;;16.00;8.00;;;9.10;99.90;;;;;;5057579;28;20068;-84
2022/11/05 12:54:57;;;;;;;11.85;7.70;;;9.00;99.90;;;;;;5066761;28;20630;-85
2022/11/05 12:57:23;;;;;;;11.75;7.22;;;9.00;99.90;;;;;;5074796;28;20024;-86
2022/11/05 13:00:11;;;;;;;10.93;7.40;;;8.90;99.90;;;;;;5063225;28;20602;-84
2022/11/05 13:02:55;;;;;;;14.98;7.85;;;8.90;99.90;;;;;;5057478;28;20101;-84
2022/11/05 13:05:35;;;;;;;12.95;8.55;;;8.80;99.90;;;;;;5065560;28;20484;-84
2022/11/05 13:08:15;;;;;;;13.73;7.57;;;8.90;99.90;;;;;;5053727;28;20065;-84
2022/11/05 13:10:56;;;;;;;12.85;7.10;;;8.80;99.90;;;;;;5057492;28;20039;-85
2022/11/05 13:13:26;;;;;;;11.63;8.10;;;8.80;99.90;;;;;;5046869;28;20032;-84
2022/11/05 13:16:04;;;;;;;18.27;8.43;;;8.70;99.90;;;;;;5060518;28;20036;-87
2022/11/05 13:18:44;;;;;;;19.67;9.68;;;8.70;99.90;;;;;;5062067;28;20040;-84
2022/11/05 13:21:11;;;;;;;15.68;8.40;;;8.70;99.90;;;;;;5070334;28;20050;-84
2022/11/05 13:23:45;;;;;;;14.77;8.60;;;8.80;99.90;;;;;;5070461;28;20028;-84
2022/11/05 13:26:30;;;;;;;11.38;7.70;;;8.90;99.90;;;;;;5070079;28;20806;-85
2022/11/05 13:29:11;;;;;;;14.27;8.70;;;9.00;99.90;;;;;;5085812;28;20036;-85
2022/11/05 13:31:42;;;;;;;14.45;8.60;;;9.00;99.90;;;;;;5086979;28;20024;-83
2022/11/05 13:34:11;;;;;;;14.30;8.63;;;9.10;99.90;;;;;;5093740;28;20066;-86
2022/11/05 13:39:43;;;;;;;13.57;8.60;;;9.10;99.90;;;;;;5077383;28;20035;-85
2022/11/05 13:42:30;;;;;;;12.65;8.88;;;9.10;99.90;;;;;;5072440;28;20041;-85
2022/11/05 13:45:08;;;;;;;13.77;8.70;;;9.10;99.90;;;;;;5056275;28;20039;-85
2022/11/05 13:47:42;;;;;;;12.02;8.07;;;9.10;99.90;;;;;;5094489;28;20506;-85
2022/11/05 13:50:26;;;;;;;13.30;8.38;;;9.10;99.90;;;;;;5092928;28;20035;-85
2022/11/05 13:53:06;;;;;;;12.25;8.18;;;9.00;99.90;;;;;;5055931;28;20029;-84
2022/11/05 13:55:38;;;;;;;13.18;8.57;;;9.00;99.90;;;;;;5056762;28;20097;-84
2022/11/05 13:58:21;;;;;;;13.95;8.52;;;8.90;99.90;;;;;;5091353;28;20028;-84